createdAt,value
2019-04-01T00:01:37.117Z,0.42
2019-04-01T00:05:40.713Z,0.19
2019-04-01T00:09:44.423Z,0.27
2019-04-01T00:13:47.954Z,0.34
2019-04-01T00:17:51.641Z,0.33
2019-04-01T00:21:55.258Z,0.30
2019-04-01T00:25:58.871Z,0.41
2019-04-01T00:30:02.483Z,0.55
2019-04-01T00:34:06.095Z,0.64
2019-04-01T00:38:09.709Z,0.50
2019-04-01T00:42:20.434Z,0.38
2019-04-01T00:46:24.524Z,0.17
2019-04-01T00:50:28.230Z,0.17
2019-04-01T00:54:31.844Z,-0.05
2019-04-01T00:58:35.460Z,-0.14
2019-04-01T01:02:39.129Z,-0.32
2019-04-01T01:06:42.880Z,-0.47
2019-04-01T01:10:46.504Z,-0.42
2019-04-01T01:14:50.220Z,-0.29
2019-04-01T01:18:53.837Z,-0.19
2019-04-01T01:23:00.212Z,-0.28
2019-04-01T01:27:03.824Z,-0.27
2019-04-01T01:31:07.450Z,-0.22
2019-04-01T01:35:11.075Z,-0.14
2019-04-01T01:39:14.668Z,-0.08
2019-04-01T01:43:18.240Z,-0.18
2019-04-01T01:47:21.902Z,-0.05
2019-04-01T01:51:25.507Z,-0.12
2019-04-01T01:55:29.125Z,-0.11
2019-04-01T01:59:32.737Z,-0.45
2019-04-01T02:03:36.453Z,-0.55
2019-04-01T02:07:40.065Z,-1.08
2019-04-01T02:11:43.682Z,-1.14
2019-04-01T02:15:47.294Z,-0.71
2019-04-01T02:19:51.023Z,-0.75
2019-04-01T02:23:54.621Z,-0.63
2019-04-01T02:27:58.440Z,-0.70
2019-04-01T02:32:02.057Z,-0.69
2019-04-01T02:36:05.670Z,-0.70
2019-04-01T02:40:09.709Z,-0.71
2019-04-01T02:44:13.305Z,-0.65
2019-04-01T02:48:17.022Z,-0.52
2019-04-01T02:52:20.737Z,-0.61
2019-04-01T02:56:24.468Z,-0.57
2019-04-01T03:00:28.173Z,-0.78
2019-04-01T03:04:31.818Z,-0.85
2019-04-01T03:08:35.398Z,-0.83
2019-04-01T03:12:39.010Z,-1.17
2019-04-01T03:16:42.623Z,-1.25
2019-04-01T03:20:46.188Z,-1.13
2019-04-01T03:24:49.746Z,-1.11
2019-04-01T03:28:53.363Z,-1.08
2019-04-01T03:32:56.982Z,-1.07
2019-04-01T03:37:00.592Z,-1.04
2019-04-01T03:41:04.313Z,-1.09
2019-04-01T03:45:08.290Z,-1.07
2019-04-01T03:49:11.959Z,-1.12
2019-04-01T03:53:15.557Z,-1.40
2019-04-01T03:57:19.661Z,-1.45
2019-04-01T04:01:23.254Z,-1.38
2019-04-01T04:05:27.152Z,-1.31
2019-04-01T04:09:30.726Z,-1.27
2019-04-01T04:13:34.344Z,-1.34
2019-04-01T04:17:37.955Z,-1.27
2019-04-01T04:21:41.598Z,-1.57
2019-04-01T04:25:45.283Z,-1.83
2019-04-01T04:29:48.909Z,-1.71
2019-04-01T04:33:52.613Z,-1.62
2019-04-01T04:37:56.335Z,-1.56
2019-04-01T04:41:59.941Z,-1.70
2019-04-01T04:46:03.556Z,-1.83
2019-04-01T04:50:07.477Z,-1.74
2019-04-01T04:54:11.090Z,-1.74
2019-04-01T04:58:15.112Z,-1.90
2019-04-01T05:02:18.725Z,-1.77
2019-04-01T05:06:23.669Z,-1.71
2019-04-01T05:10:27.287Z,-1.66
2019-04-01T05:14:30.898Z,-1.66
2019-04-01T05:18:34.514Z,-1.29
2019-04-01T05:22:39.248Z,-0.97
2019-04-01T05:26:44.808Z,-0.48
2019-04-01T05:30:51.190Z,-0.05
2019-04-01T05:34:56.574Z,0.26
2019-04-01T05:39:00.471Z,1.34
2019-04-01T05:43:04.594Z,2.10
2019-04-01T05:47:08.621Z,1.85
2019-04-01T05:51:12.332Z,2.50
2019-04-01T05:55:15.884Z,2.40
2019-04-01T05:59:19.768Z,2.35
2019-04-01T06:03:23.380Z,2.96
2019-04-01T06:07:28.117Z,3.52
2019-04-01T06:11:31.836Z,4.09
2019-04-01T06:15:35.660Z,4.57
2019-04-01T06:19:39.675Z,4.35
2019-04-01T06:23:43.306Z,4.52
2019-04-01T06:27:47.112Z,5.11
2019-04-01T06:31:50.827Z,5.07
2019-04-01T06:35:54.538Z,5.07
2019-04-01T06:39:58.898Z,5.70
2019-04-01T06:44:03.098Z,5.98
2019-04-01T06:48:06.812Z,5.93
2019-04-01T06:52:10.427Z,7.20
2019-04-01T06:56:14.493Z,8.26
2019-04-01T07:00:18.419Z,9.49
2019-04-01T07:04:22.396Z,10.21
2019-04-01T07:08:26.116Z,11.47
2019-04-01T07:12:29.726Z,11.10
2019-04-01T07:16:33.442Z,9.47
2019-04-01T07:20:37.160Z,9.95
2019-04-01T07:24:40.873Z,9.99
2019-04-01T07:28:44.588Z,9.69
2019-04-01T07:32:48.303Z,8.63
2019-04-01T07:36:52.535Z,9.00
2019-04-01T07:40:59.088Z,8.75
2019-04-01T07:45:01.711Z,9.33
2019-04-01T07:49:05.427Z,9.39
2019-04-01T07:53:09.033Z,9.44
2019-04-01T07:57:12.659Z,8.66
2019-04-01T08:01:16.566Z,9.25
2019-04-01T08:05:20.182Z,10.51
2019-04-01T08:09:23.896Z,9.37
2019-04-01T08:13:27.612Z,9.78
2019-04-01T08:17:31.435Z,10.93
2019-04-01T08:21:34.992Z,11.07
2019-04-01T08:25:38.606Z,10.87
2019-04-01T08:29:42.376Z,10.87
2019-04-01T08:33:50.038Z,11.53
2019-04-01T08:37:51.967Z,14.62
2019-04-01T08:41:55.674Z,15.32
2019-04-01T08:45:59.389Z,13.71
2019-04-01T08:50:03.618Z,13.38
2019-04-01T08:54:07.198Z,13.74
2019-04-01T08:58:10.951Z,13.56
2019-04-01T09:02:18.163Z,13.40
2019-04-01T09:06:20.022Z,14.15
2019-04-01T09:10:23.835Z,13.99
2019-04-01T09:14:27.809Z,14.26
2019-04-01T09:18:31.370Z,14.47
2019-04-01T09:22:34.985Z,14.52
2019-04-01T09:26:38.599Z,14.46
2019-04-01T09:30:42.314Z,14.46
2019-04-01T09:34:45.933Z,13.61
2019-04-01T09:38:52.408Z,14.35
2019-04-01T09:42:56.230Z,14.93
2019-04-01T09:46:59.841Z,13.11
2019-04-01T09:51:03.394Z,13.22
2019-04-01T09:55:07.458Z,13.87
2019-04-01T09:59:11.102Z,14.23
2019-04-01T10:03:14.807Z,13.55
2019-04-01T10:07:18.430Z,14.54
2019-04-01T10:11:22.136Z,14.81
2019-04-01T10:15:25.752Z,15.27
2019-04-01T10:19:29.367Z,13.35
2019-04-01T10:23:33.083Z,14.60
2019-04-01T10:27:36.692Z,13.76
2019-04-01T10:31:40.310Z,13.76
2019-04-01T10:35:43.945Z,14.26
2019-04-01T10:39:47.537Z,13.39
2019-04-01T10:43:51.253Z,12.69
2019-04-01T10:47:54.894Z,12.69
2019-04-01T10:51:58.597Z,14.28
2019-04-01T10:56:02.228Z,13.68
2019-04-01T11:00:08.984Z,12.32
2019-04-01T11:04:12.707Z,11.62
2019-04-01T11:08:16.416Z,12.45
2019-04-01T11:16:37.121Z,11.14
2019-04-01T11:20:40.807Z,10.11
2019-04-01T11:24:44.521Z,10.31
2019-04-01T11:28:48.159Z,10.51
2019-04-01T11:32:51.734Z,10.24
2019-04-01T11:36:55.402Z,10.15
2019-04-01T11:40:58.928Z,10.13
2019-04-01T11:45:05.591Z,10.22
2019-04-01T11:49:07.974Z,10.08
2019-04-01T11:53:11.587Z,9.90
2019-04-01T11:57:15.314Z,10.09
2019-04-01T12:01:18.913Z,10.26
2019-04-01T12:05:22.732Z,10.20
2019-04-01T12:09:27.900Z,10.35
2019-04-01T12:13:31.700Z,10.17
2019-04-01T12:17:35.502Z,10.35
2019-04-01T12:21:41.438Z,10.68
2019-04-01T12:25:44.491Z,10.54
2019-04-01T12:29:48.456Z,10.48
2019-04-01T12:33:52.329Z,10.49
2019-04-01T12:37:56.046Z,10.52
2019-04-01T12:41:59.663Z,10.42
2019-04-01T12:46:03.273Z,10.41
2019-04-01T12:50:07.309Z,10.46
2019-04-01T12:54:11.038Z,10.28
2019-04-01T12:58:17.623Z,10.61
2019-04-01T13:02:20.401Z,10.70
2019-04-01T13:06:24.210Z,10.65
2019-04-01T13:10:27.825Z,10.72
2019-04-01T13:14:31.438Z,10.98
2019-04-01T13:18:38.044Z,10.79
2019-04-01T13:22:40.295Z,10.65
2019-04-01T13:26:44.034Z,10.71
2019-04-01T13:30:48.354Z,10.69
2019-04-01T13:34:51.877Z,10.78
2019-04-01T13:38:55.475Z,10.69
2019-04-01T13:42:59.017Z,10.80
2019-04-01T13:47:02.601Z,10.95
2019-04-01T13:51:06.419Z,10.88
2019-04-01T13:55:10.409Z,10.93
2019-04-01T13:59:17.324Z,10.92
2019-04-01T14:03:19.413Z,11.20
2019-04-01T14:07:23.034Z,11.05
2019-04-01T14:11:26.741Z,11.21
2019-04-01T14:15:30.359Z,11.41
2019-04-01T14:19:33.973Z,11.52
2019-04-01T14:23:37.514Z,11.39
2019-04-01T14:27:41.126Z,11.51
2019-04-01T14:31:44.815Z,11.44
2019-04-01T14:35:48.426Z,11.39
2019-04-01T14:39:52.043Z,11.53
2019-04-01T14:43:55.661Z,11.34
2019-04-01T14:47:59.269Z,11.48
2019-04-01T14:52:04.166Z,11.44
2019-04-01T14:56:07.758Z,11.44
2019-04-01T15:00:14.289Z,11.21
2019-04-01T15:04:17.976Z,11.16
2019-04-01T15:08:21.638Z,11.20
2019-04-01T15:12:25.562Z,11.09
2019-04-01T15:16:29.314Z,11.21
2019-04-01T15:20:32.993Z,11.08
2019-04-01T15:24:36.708Z,11.03
2019-04-01T15:28:43.281Z,10.71
2019-04-01T15:32:47.008Z,10.71
2019-04-01T15:36:50.729Z,10.81
2019-04-01T15:40:57.990Z,10.56
2019-04-01T15:44:59.703Z,10.61
2019-04-01T15:49:03.414Z,10.58
2019-04-01T15:53:07.026Z,10.35
2019-04-01T15:57:10.743Z,10.38
2019-04-01T16:01:14.382Z,10.42
2019-04-01T16:05:17.972Z,10.38
2019-04-01T16:09:22.342Z,10.40
2019-04-01T16:13:26.734Z,10.42
2019-04-01T16:17:30.448Z,10.30
2019-04-01T16:21:33.975Z,10.23
2019-04-01T16:25:37.984Z,10.17
2019-04-01T16:29:41.796Z,9.98
2019-04-01T16:33:47.155Z,9.95
2019-04-01T16:37:50.879Z,9.80
2019-04-01T16:41:54.542Z,9.64
2019-04-01T16:45:58.224Z,9.61
2019-04-01T16:50:01.922Z,9.50
2019-04-01T16:54:05.740Z,9.37
2019-04-01T16:58:09.355Z,9.32
2019-04-01T17:02:18.295Z,9.16
2019-04-01T17:06:18.527Z,9.08
2019-04-01T17:10:23.575Z,8.96
2019-04-01T17:14:27.532Z,8.80
2019-04-01T17:18:31.899Z,8.79
2019-04-01T17:22:36.015Z,8.72
2019-04-01T17:27:03.882Z,8.58
2019-04-01T17:31:08.001Z,8.50
2019-04-01T17:35:13.022Z,8.29
2019-04-01T17:39:16.827Z,8.13
2019-04-01T17:43:23.156Z,7.86
2019-04-01T17:47:27.397Z,7.52
2019-04-01T17:51:31.882Z,7.38
2019-04-01T17:55:35.922Z,7.09
2019-04-01T17:59:39.460Z,7.03
2019-04-01T18:03:43.173Z,7.11
2019-04-01T18:07:46.940Z,6.41
2019-04-01T18:11:50.555Z,6.41
2019-04-01T18:15:57.170Z,5.96
2019-04-01T18:19:59.628Z,5.64
2019-04-01T18:24:03.338Z,5.52
2019-04-01T18:28:06.956Z,5.25
2019-04-01T18:32:10.567Z,5.15
2019-04-01T18:36:14.185Z,5.19
2019-04-01T18:40:31.503Z,5.23
2019-04-01T18:44:25.283Z,5.43
2019-04-01T18:48:29.041Z,5.31
2019-04-01T18:52:32.629Z,5.17
2019-04-01T18:56:36.344Z,5.14
2019-04-01T19:00:40.061Z,4.94
2019-04-01T19:04:43.680Z,5.04
2019-04-01T19:08:47.292Z,5.26
2019-04-01T19:13:04.757Z,5.28
2019-04-01T19:16:56.257Z,5.35
2019-04-01T19:21:04.607Z,5.32
2019-04-01T19:25:08.180Z,5.18
2019-04-01T19:29:11.809Z,5.16
2019-04-01T19:33:15.526Z,5.32
2019-04-01T19:37:19.139Z,5.45
2019-04-01T19:41:22.752Z,5.33
2019-04-01T19:45:26.470Z,5.16
2019-04-01T19:49:30.081Z,5.23
2019-04-01T19:53:33.696Z,5.25
2019-04-01T19:57:37.310Z,5.19
2019-04-01T20:01:41.038Z,5.34
2019-04-01T20:05:44.743Z,5.21
2019-04-01T20:09:48.646Z,5.12
2019-04-01T20:13:54.828Z,4.89
2019-04-01T20:17:57.837Z,4.78
2019-04-01T20:22:01.450Z,4.77
2019-04-01T20:26:05.578Z,4.56
2019-04-01T20:30:10.947Z,4.56
2019-04-01T20:34:19.880Z,4.76
2019-04-01T20:38:20.106Z,4.81
2019-04-01T20:42:23.717Z,4.80
2019-04-01T20:46:27.334Z,4.77
2019-04-01T20:50:30.945Z,4.76
2019-04-01T20:54:34.498Z,4.66
2019-04-01T20:58:38.072Z,4.50
2019-04-01T21:02:41.672Z,4.50
2019-04-01T21:06:45.297Z,4.49
2019-04-01T21:10:48.919Z,4.47
2019-04-01T21:14:52.595Z,4.63
2019-04-01T21:18:56.240Z,4.53
2019-04-01T21:22:59.970Z,4.50
2019-04-01T21:27:03.570Z,4.62
2019-04-01T21:31:08.519Z,4.48
2019-04-01T21:35:12.130Z,4.42
2019-04-01T21:39:15.846Z,4.43
2019-04-01T21:43:20.316Z,4.43
2019-04-01T21:47:24.403Z,4.35
2019-04-01T21:51:28.120Z,4.42
2019-04-01T21:55:31.835Z,4.50
2019-04-01T21:59:35.353Z,4.54
2019-04-01T22:03:38.960Z,4.43
2019-04-01T22:07:42.679Z,4.06
2019-04-01T22:11:46.204Z,3.90
2019-04-01T22:15:50.196Z,3.91
2019-04-01T22:19:54.234Z,3.67
2019-04-01T22:23:57.854Z,3.63
2019-04-01T22:28:01.571Z,3.38
2019-04-01T22:32:05.280Z,3.27
2019-04-01T22:36:08.906Z,3.16
2019-04-01T22:40:12.629Z,3.31
2019-04-01T22:44:16.225Z,3.36
2019-04-01T22:48:19.841Z,3.40
2019-04-01T22:52:23.557Z,3.48
2019-04-01T22:56:27.522Z,3.53
2019-04-01T23:00:31.295Z,3.45
2019-04-01T23:04:36.893Z,3.58
2019-04-01T23:08:40.264Z,3.63
2019-04-01T23:12:43.877Z,3.56
2019-04-01T23:16:47.597Z,3.52
2019-04-01T23:20:54.175Z,3.54
2019-04-01T23:24:57.897Z,3.39
2019-04-01T23:29:01.513Z,3.35
2019-04-01T23:33:05.118Z,3.54
2019-04-01T23:37:09.279Z,3.63
2019-04-01T23:41:13.269Z,3.49
2019-04-01T23:45:17.085Z,3.61
2019-04-01T23:49:20.699Z,3.50
2019-04-01T23:53:24.414Z,3.52
2019-04-01T23:57:28.036Z,3.53
